La Port Police — WDG4647 — position and weather

sailwx.info

Track history (hours):
 
Tides and Currents Weather Stations Pressure Air Temp Water Temp Dewpoint Dewpoint Depression Visibility Wind Speed Wind Dir Waves Ship Positions

La Port Police

Owner: LA Port Police, Los Angeles, CA. More information available from US FCC via Universal Licensing System.

Last reported at 2017-Sep-21 19:08 UTC. Time now 2017-Sep-23 16:24 UTC.
Position N 33°44' W 118°16'.

Length 20 m.

Type: Ship. MMSI: 367538710.

Date/timePositionNaut miles runAvg speedWind from/ knotsBaromVisibWave heightAir tempDewpointWater temp
2017-Sep-21 19:08N 33°44' W 118°16'0 3.2
2017-Sep-21 19:00N 33°44' W 118°16'2 0.3
2017-Sep-21 14:25N 33°43' W 118°15'2 0.1
2017-Sep-20 21:17N 33°44' W 118°16'1 3.1
2017-Sep-20 21:00N 33°43' W 118°16'2 0.4
2017-Sep-20 14:45N 33°41' W 118°16'3 0.1
2017-Sep-18 20:30N 33°44' W 118°16'2 0.4
2017-Sep-18 15:04N 33°42' W 118°15'114.1
2017-Sep-18 15:00N 33°43' W 118°16'  
2017-Sep-14 16:59N 33°44' W 118°16'0 0.9
2017-Sep-14 16:28N 33°44' W 118°17'2 3.6
2017-Sep-14 16:00N 33°45' W 118°16'0 0.3
2017-Sep-14 15:30N 33°45' W 118°16'0 0.3
2017-Sep-14 15:00N 33°45' W 118°16'0 0.0
2017-Sep-14 14:30N 33°45' W 118°16'0 0.3
2017-Sep-14 13:56N 33°46' W 118°16'0 0.0
2017-Sep-14 13:30N 33°46' W 118°16'1 2.5
2017-Sep-14 13:00N 33°44' W 118°17'0 0.0
2017-Sep-13 18:54N 33°44' W 118°16'410.3
2017-Sep-13 18:31N 33°41' W 118°13'2 0.6
2017-Sep-13 15:08N 33°40' W 118°12'219.2
2017-Sep-13 15:01N 33°41' W 118°14'3 6.8
2017-Sep-13 14:31N 33°44' W 118°16'0 0.1
2017-Sep-13 14:00N 33°44' W 118°16'0 0.0
2017-Sep-12 09:27N 33°44' W 118°16'0 0.9
2017-Sep-12 08:59N 33°44' W 118°17'1 1.6
2017-Sep-12 08:31N 33°45' W 118°16'0 0.0
2017-Sep-12 08:00N 33°45' W 118°16'0 0.0
2017-Sep-12 07:30N 33°45' W 118°16'0 0.1
2017-Sep-12 06:48N 33°45' W 118°16'0 0.0
2017-Sep-12 06:31N 33°45' W 118°16'1 2.7
2017-Sep-12 06:00N 33°44' W 118°16'1 1.2
2017-Sep-12 05:30N 33°44' W 118°16'  
Track history (hours):
 
Tides and Currents Weather Stations Pressure Air Temp Water Temp Dewpoint Dewpoint Depression Visibility Wind Speed Wind Dir Waves Ship Positions

La Port Police

Owner: LA Port Police, Los Angeles, CA. More information available from US FCC via Universal Licensing System.

Last reported at 2017-Sep-21 19:08 UTC. Time now 2017-Sep-23 16:24 UTC.
Position N 33°44' W 118°16'.

Length 20 m.

Type: Ship. MMSI: 367538710.

Date/timePositionNaut miles runAvg speedWind from/ knotsBaromVisibWave heightAir tempDewpointWater temp
2017-Sep-21 19:08N 33°44' W 118°16'0 3.2
2017-Sep-21 19:00N 33°44' W 118°16'2 0.3
2017-Sep-21 14:25N 33°43' W 118°15'2 0.1
2017-Sep-20 21:17N 33°44' W 118°16'1 3.1
2017-Sep-20 21:00N 33°43' W 118°16'2 0.4
2017-Sep-20 14:45N 33°41' W 118°16'3 0.1
2017-Sep-18 20:30N 33°44' W 118°16'2 0.4
2017-Sep-18 15:04N 33°42' W 118°15'114.1
2017-Sep-18 15:00N 33°43' W 118°16'  
2017-Sep-14 16:59N 33°44' W 118°16'0 0.9
2017-Sep-14 16:28N 33°44' W 118°17'2 3.6
2017-Sep-14 16:00N 33°45' W 118°16'0 0.3
2017-Sep-14 15:30N 33°45' W 118°16'0 0.3
2017-Sep-14 15:00N 33°45' W 118°16'0 0.0
2017-Sep-14 14:30N 33°45' W 118°16'0 0.3
2017-Sep-14 13:56N 33°46' W 118°16'0 0.0
2017-Sep-14 13:30N 33°46' W 118°16'1 2.5
2017-Sep-14 13:00N 33°44' W 118°17'0 0.0
2017-Sep-13 18:54N 33°44' W 118°16'410.3
2017-Sep-13 18:31N 33°41' W 118°13'2 0.6
2017-Sep-13 15:08N 33°40' W 118°12'219.2
2017-Sep-13 15:01N 33°41' W 118°14'3 6.8
2017-Sep-13 14:31N 33°44' W 118°16'0 0.1
2017-Sep-13 14:00N 33°44' W 118°16'0 0.0
2017-Sep-12 09:27N 33°44' W 118°16'0 0.9
2017-Sep-12 08:59N 33°44' W 118°17'1 1.6
2017-Sep-12 08:31N 33°45' W 118°16'0 0.0
2017-Sep-12 08:00N 33°45' W 118°16'0 0.0
2017-Sep-12 07:30N 33°45' W 118°16'0 0.1
2017-Sep-12 06:48N 33°45' W 118°16'0 0.0
2017-Sep-12 06:31N 33°45' W 118°16'1 2.7
2017-Sep-12 06:00N 33°44' W 118°16'1 1.2
2017-Sep-12 05:30N 33°44' W 118°16'  

Dump ship's entire track history